createdAt,value
2019-06-07T00:01:31.007Z,1.50
2019-06-07T00:04:21.321Z,1.00
2019-06-07T00:07:10.633Z,1.60
2019-06-07T00:09:58.818Z,1.25
2019-06-07T00:12:46.839Z,1.47
2019-06-07T00:15:34.815Z,1.20
2019-06-07T00:18:25.806Z,1.20
2019-06-07T00:20:53.239Z,1.20
2019-06-07T00:23:41.219Z,1.20
2019-06-07T00:26:29.244Z,1.40
2019-06-07T00:29:18.988Z,1.27
2019-06-07T00:31:47.675Z,1.25
2019-06-07T00:34:35.607Z,1.10
2019-06-07T00:37:25.632Z,1.47
2019-06-07T00:40:19.735Z,1.22
2019-06-07T00:43:03.431Z,1.40
2019-06-07T00:45:51.429Z,1.50
2019-06-07T00:48:39.410Z,1.12
2019-06-07T00:51:27.396Z,1.57
2019-06-07T00:54:18.588Z,1.47
2019-06-07T00:57:05.339Z,1.22
2019-06-07T00:59:53.301Z,0.90
2019-06-07T01:02:41.271Z,0.90
2019-06-07T01:05:31.529Z,1.02
2019-06-07T01:08:21.899Z,1.02
2019-06-07T01:11:08.727Z,1.30
2019-06-07T01:13:56.695Z,1.37
2019-06-07T01:16:57.049Z,1.00
2019-06-07T01:19:34.424Z,1.10
2019-06-07T01:22:23.506Z,1.40
2019-06-07T01:24:53.066Z,1.42
2019-06-07T01:27:41.104Z,1.27
2019-06-07T01:30:29.477Z,1.10
2019-06-07T01:33:18.336Z,0.93
2019-06-07T01:36:07.314Z,1.02
2019-06-07T01:38:55.351Z,1.40
2019-06-07T01:41:43.571Z,1.00
2019-06-07T01:44:31.610Z,1.20
2019-06-07T01:47:12.198Z,1.02
2019-06-07T01:49:52.907Z,1.20
2019-06-07T01:52:23.535Z,1.22
2019-06-07T01:55:11.416Z,1.20
2019-06-07T01:57:59.355Z,1.10
2019-06-07T02:00:47.314Z,0.93
2019-06-07T02:03:35.274Z,1.67
2019-06-07T02:06:27.103Z,1.20
2019-06-07T02:09:13.027Z,1.20
2019-06-07T02:12:01.083Z,1.40
2019-06-07T02:14:32.979Z,1.17
2019-06-07T02:17:20.375Z,1.15
2019-06-07T02:20:09.441Z,0.95
2019-06-07T02:22:57.414Z,1.17
2019-06-07T02:25:50.210Z,1.15
2019-06-07T02:28:45.076Z,1.12
2019-06-07T02:31:27.732Z,1.60
2019-06-07T02:34:14.527Z,1.02
2019-06-07T02:37:02.586Z,1.07
2019-06-07T02:39:50.561Z,1.00
2019-06-07T02:42:42.568Z,1.00
2019-06-07T02:45:34.964Z,1.22
2019-06-07T02:48:10.830Z,1.40
2019-06-07T02:50:51.885Z,1.30
2019-06-07T02:53:38.364Z,1.30
2019-06-07T02:58:52.684Z,1.20
2019-06-07T03:01:21.639Z,1.17
2019-06-07T03:04:09.923Z,1.20
2019-06-07T03:07:18.498Z,1.10
2019-06-07T03:10:06.662Z,1.20
2019-06-07T03:12:54.702Z,1.25
2019-06-07T03:16:03.399Z,1.17
2019-06-07T03:19:11.133Z,1.62
2019-06-07T03:21:42.407Z,1.23
2019-06-07T03:24:51.003Z,1.15
2019-06-07T03:27:48.624Z,1.20
2019-06-07T03:30:48.251Z,1.30
2019-06-07T03:33:18.432Z,1.30
2019-06-07T03:36:22.664Z,1.10
2019-06-07T03:38:56.287Z,1.50
2019-06-07T03:42:04.696Z,0.97
2019-06-07T03:44:14.736Z,1.40
2019-06-07T03:46:55.984Z,1.20
2019-06-07T03:49:24.802Z,1.10
2019-06-07T03:52:12.758Z,1.22
2019-06-07T03:55:00.729Z,1.10
2019-06-07T04:00:42.722Z,1.07
2019-06-07T04:03:08.891Z,1.05
2019-06-07T04:05:56.846Z,1.32
2019-06-07T04:08:44.899Z,1.20
2019-06-07T04:11:34.992Z,1.25
2019-06-07T04:14:23.418Z,1.20
2019-06-07T04:17:12.351Z,1.25
2019-06-07T04:20:00.319Z,1.15
2019-06-07T04:22:48.304Z,1.52
2019-06-07T04:25:39.473Z,1.20
2019-06-07T04:29:19.140Z,1.22
2019-06-07T04:31:15.798Z,0.93
2019-06-07T04:34:03.938Z,1.20
2019-06-07T04:36:59.086Z,1.40
2019-06-07T04:39:45.119Z,1.05
2019-06-07T04:42:34.985Z,1.25
2019-06-07T04:45:33.741Z,1.00
2019-06-07T04:48:04.171Z,1.22
2019-06-07T04:50:45.388Z,1.35
2019-06-07T04:53:26.133Z,1.50
2019-06-07T04:55:56.395Z,1.10
2019-06-07T04:58:25.119Z,1.00
2019-06-07T05:01:01.341Z,1.30
2019-06-07T05:03:24.383Z,1.17
2019-06-07T05:06:11.953Z,1.30
2019-06-07T05:09:00.147Z,1.05
2019-06-07T05:11:47.671Z,0.90
2019-06-07T05:14:36.742Z,1.40
2019-06-07T05:17:25.501Z,1.35
2019-06-07T05:19:54.403Z,1.40
2019-06-07T05:22:45.069Z,1.42
2019-06-07T05:25:33.662Z,1.25
2019-06-07T05:28:21.843Z,1.10
2019-06-07T05:31:09.819Z,1.40
2019-06-07T05:33:57.802Z,1.20
2019-06-07T05:36:45.759Z,1.13
2019-06-07T05:39:36.874Z,1.10
2019-06-07T05:42:22.998Z,1.10
2019-06-07T05:45:10.748Z,1.10
2019-06-07T05:50:57.227Z,1.50
2019-06-07T05:53:45.977Z,1.17
2019-06-07T05:56:35.871Z,1.17
2019-06-07T05:59:24.494Z,1.55
2019-06-07T06:02:22.187Z,1.92
2019-06-07T06:05:02.591Z,1.20
2019-06-07T06:07:51.956Z,1.40
2019-06-07T06:10:42.940Z,1.30
2019-06-07T06:13:29.654Z,1.20
2019-06-07T06:16:17.722Z,1.40
2019-06-07T06:19:05.770Z,1.70
2019-06-07T06:21:54.078Z,1.57
2019-06-07T06:25:04.250Z,1.10
2019-06-07T06:30:21.731Z,1.55
2019-06-07T06:33:27.094Z,1.70
2019-06-07T06:35:59.489Z,1.32
2019-06-07T06:38:49.699Z,1.50
2019-06-07T06:41:53.761Z,1.60
2019-06-07T06:44:26.602Z,1.95
2019-06-07T06:47:14.152Z,1.20
2019-06-07T06:50:02.981Z,1.65
2019-06-07T06:52:54.429Z,1.20
2019-06-07T06:55:41.487Z,1.07
2019-06-07T06:58:23.306Z,1.40
2019-06-07T07:01:06.836Z,1.32
2019-06-07T07:03:57.654Z,1.10
2019-06-07T07:06:26.856Z,1.67
2019-06-07T07:09:14.014Z,1.45
2019-06-07T07:12:11.728Z,1.52
2019-06-07T07:14:52.952Z,1.20
2019-06-07T07:17:53.882Z,1.02
2019-06-07T07:20:31.190Z,1.35
2019-06-07T07:23:19.200Z,1.27
2019-06-07T07:26:07.413Z,0.72
2019-06-07T07:28:57.689Z,1.00
2019-06-07T07:31:46.381Z,1.12
2019-06-07T07:34:37.268Z,1.20
2019-06-07T07:37:05.597Z,0.98
2019-06-07T07:40:01.144Z,1.02
2019-06-07T07:42:24.275Z,1.17
2019-06-07T07:45:12.320Z,0.88
2019-06-07T07:48:14.740Z,1.20
2019-06-07T07:50:54.446Z,1.00
2019-06-07T07:53:52.123Z,0.95
2019-06-07T07:56:29.479Z,0.90
2019-06-07T07:59:09.981Z,1.10
2019-06-07T08:01:53.082Z,0.90
2019-06-07T08:05:12.712Z,1.07
2019-06-07T08:07:04.222Z,1.27
2019-06-07T08:09:57.753Z,0.90
2019-06-07T08:15:54.453Z,0.95
2019-06-07T08:18:37.856Z,0.90
2019-06-07T08:21:27.098Z,1.15
2019-06-07T08:24:15.655Z,0.60
2019-06-07T08:27:24.806Z,1.00
2019-06-07T08:30:08.999Z,0.90
2019-06-07T08:36:10.551Z,0.80
2019-06-07T08:38:47.972Z,0.80
2019-06-07T08:41:29.919Z,0.83
2019-06-07T08:44:23.691Z,0.85
2019-06-07T08:47:19.995Z,0.80
2019-06-07T08:50:04.388Z,0.62
2019-06-07T08:52:47.499Z,0.78
2019-06-07T08:55:35.522Z,0.70
2019-06-07T08:58:16.451Z,0.90
2019-06-07T09:01:03.894Z,0.75
2019-06-07T09:03:27.920Z,0.70
2019-06-07T09:06:00.663Z,0.70
2019-06-07T09:08:46.409Z,0.95
2019-06-07T09:11:34.427Z,0.70
2019-06-07T09:14:22.498Z,0.50
2019-06-07T09:17:12.485Z,0.80
2019-06-07T09:19:41.073Z,0.65
2019-06-07T09:22:29.093Z,1.05
2019-06-07T09:25:21.292Z,0.70
2019-06-07T09:28:17.515Z,0.68
2019-06-07T09:30:57.829Z,0.60
2019-06-07T09:33:46.588Z,0.60
2019-06-07T09:36:34.602Z,0.68
2019-06-07T09:39:43.202Z,0.67
2019-06-07T09:42:31.228Z,0.88
2019-06-07T09:45:19.189Z,0.70
2019-06-07T09:48:04.959Z,0.70
2019-06-07T09:50:42.262Z,0.60
2019-06-07T09:53:23.500Z,0.70
2019-06-07T09:56:08.734Z,0.70
2019-06-07T09:58:51.997Z,0.70
2019-06-07T10:01:29.495Z,0.72
2019-06-07T10:04:28.209Z,0.90
2019-06-07T10:06:53.060Z,0.60
2019-06-07T10:12:04.673Z,1.00
2019-06-07T10:14:53.745Z,0.60
2019-06-07T10:17:41.783Z,0.80
2019-06-07T10:20:29.751Z,0.60
2019-06-07T10:22:59.536Z,0.57
2019-06-07T10:25:48.174Z,0.70
2019-06-07T10:28:17.017Z,0.60
2019-06-07T10:31:07.317Z,0.70
2019-06-07T10:33:54.734Z,0.65
2019-06-07T10:36:42.839Z,0.62
2019-06-07T10:39:30.875Z,0.60
2019-06-07T10:42:18.863Z,0.60
2019-06-07T10:45:08.212Z,0.50
2019-06-07T10:47:49.521Z,0.55
2019-06-07T10:50:30.862Z,0.65
2019-06-07T10:53:12.597Z,0.70
2019-06-07T10:55:53.787Z,0.70
2019-06-07T10:58:34.565Z,0.60
2019-06-07T11:01:15.523Z,0.68
2019-06-07T11:03:56.236Z,0.77
2019-06-07T11:06:36.875Z,0.70
2019-06-07T11:09:17.842Z,0.60
2019-06-07T11:11:58.791Z,0.70
2019-06-07T11:14:39.574Z,1.00
2019-06-07T11:17:20.537Z,0.40
2019-06-07T11:20:02.298Z,0.60
2019-06-07T11:22:42.991Z,0.70
2019-06-07T11:25:23.921Z,0.55
2019-06-07T11:28:06.223Z,0.70
2019-06-07T11:30:46.690Z,0.55
2019-06-07T11:33:27.640Z,0.85
2019-06-07T11:36:08.582Z,0.68
2019-06-07T11:39:08.418Z,0.60
2019-06-07T11:41:37.802Z,0.90
2019-06-07T11:44:25.826Z,0.80
2019-06-07T11:47:06.490Z,0.68
2019-06-07T11:49:46.975Z,0.57
2019-06-07T11:52:27.334Z,0.80
2019-06-07T11:55:08.989Z,0.80
2019-06-07T11:57:50.029Z,0.80
2019-06-07T12:00:34.085Z,0.70
2019-06-07T12:03:13.881Z,0.75
2019-06-07T12:05:54.933Z,0.80
2019-06-07T12:08:35.667Z,0.88
2019-06-07T12:11:16.786Z,0.77
2019-06-07T12:13:45.586Z,0.80
2019-06-07T12:16:33.907Z,0.70
2019-06-07T12:19:21.892Z,0.80
2019-06-07T12:22:09.915Z,0.82
2019-06-07T12:24:57.934Z,0.60
2019-06-07T12:28:06.639Z,0.80
2019-06-07T12:30:55.283Z,0.65
2019-06-07T12:33:43.404Z,0.75
2019-06-07T12:36:31.364Z,0.90
2019-06-07T12:39:20.151Z,0.62
2019-06-07T12:41:50.147Z,0.70
2019-06-07T12:44:38.326Z,0.80
2019-06-07T12:47:19.455Z,0.70
2019-06-07T12:50:00.213Z,0.60
2019-06-07T12:52:48.419Z,1.05
2019-06-07T12:55:36.544Z,0.95
2019-06-07T12:58:31.026Z,0.65
2019-06-07T13:01:14.251Z,0.80
2019-06-07T13:04:02.288Z,0.90
2019-06-07T13:06:50.248Z,0.72
2019-06-07T13:09:38.212Z,0.70
2019-06-07T13:12:26.210Z,0.93
2019-06-07T13:15:17.663Z,0.80
2019-06-07T13:17:44.870Z,1.02
2019-06-07T13:20:33.009Z,1.12
2019-06-07T13:23:22.453Z,1.10
2019-06-07T13:26:11.139Z,1.00
2019-06-07T13:28:58.784Z,0.93
2019-06-07T13:31:46.453Z,0.90
2019-06-07T13:34:34.491Z,1.00
2019-06-07T13:37:23.355Z,1.15
2019-06-07T13:43:51.812Z,1.10
2019-06-07T13:46:40.545Z,1.07
2019-06-07T13:49:21.777Z,1.10
2019-06-07T13:52:02.508Z,1.00
2019-06-07T13:54:43.751Z,1.00
2019-06-07T13:57:26.005Z,1.12
2019-06-07T14:00:10.799Z,1.10
2019-06-07T14:02:49.861Z,1.00
2019-06-07T14:05:30.398Z,1.17
2019-06-07T14:08:11.390Z,1.00
2019-06-07T14:10:52.263Z,1.10
2019-06-07T14:13:33.200Z,0.85
2019-06-07T14:16:13.804Z,0.93
2019-06-07T14:18:54.744Z,0.90
2019-06-07T14:21:35.420Z,1.10
2019-06-07T14:24:15.776Z,0.88
2019-06-07T14:27:15.725Z,0.80
2019-06-07T14:29:56.927Z,0.82
2019-06-07T14:32:37.733Z,1.00
2019-06-07T14:35:18.511Z,1.00
2019-06-07T14:37:59.359Z,0.90
2019-06-07T14:40:40.367Z,0.90
2019-06-07T14:43:20.752Z,1.00
2019-06-07T14:46:01.643Z,0.90
2019-06-07T14:48:42.155Z,0.90
2019-06-07T14:51:24.153Z,1.07
2019-06-07T14:54:04.767Z,0.90
2019-06-07T14:56:45.268Z,1.10
2019-06-07T14:59:26.393Z,0.80
2019-06-07T15:02:06.986Z,0.93
2019-06-07T15:04:56.421Z,1.10
2019-06-07T15:07:44.428Z,1.10
2019-06-07T15:10:33.645Z,0.90
2019-06-07T15:13:02.840Z,1.10
2019-06-07T15:15:50.877Z,0.98
2019-06-07T15:18:38.985Z,0.95
2019-06-07T15:21:26.945Z,1.10
2019-06-07T15:24:14.963Z,1.00
2019-06-07T15:27:02.994Z,0.93
2019-06-07T15:29:51.015Z,1.05
2019-06-07T15:32:39.607Z,1.00
2019-06-07T15:35:28.362Z,1.07
2019-06-07T15:38:16.319Z,1.03
2019-06-07T15:41:04.347Z,0.82
2019-06-07T15:43:52.389Z,0.98
2019-06-07T15:46:40.457Z,0.90
2019-06-07T15:49:21.575Z,0.90
2019-06-07T15:52:02.324Z,0.90
2019-06-07T15:54:43.252Z,0.80
2019-06-07T15:57:23.900Z,1.05
2019-06-07T16:00:04.905Z,0.82
2019-06-07T16:02:45.747Z,1.05
2019-06-07T16:05:54.330Z,0.93
2019-06-07T16:08:23.067Z,0.90
2019-06-07T16:11:11.076Z,0.88
2019-06-07T16:13:59.026Z,0.70
2019-06-07T16:16:27.772Z,0.90
2019-06-07T16:19:15.839Z,1.10
2019-06-07T16:22:04.109Z,1.00
2019-06-07T16:24:33.664Z,0.80
2019-06-07T16:27:22.563Z,0.93
2019-06-07T16:30:10.211Z,0.90
2019-06-07T16:32:58.155Z,0.80
2019-06-07T16:35:46.143Z,0.90
2019-06-07T16:38:34.343Z,1.07
2019-06-07T16:41:22.315Z,0.98
2019-06-07T16:44:10.293Z,0.78
2019-06-07T16:49:52.420Z,0.75
2019-06-07T16:52:41.915Z,0.70
2019-06-07T16:55:30.307Z,1.00
2019-06-07T16:58:18.480Z,0.70
2019-06-07T17:01:06.530Z,0.80
2019-06-07T17:03:54.689Z,0.80
2019-06-07T17:06:23.545Z,0.62
2019-06-07T17:09:11.538Z,0.82
2019-06-07T17:11:59.599Z,0.53
2019-06-07T17:14:48.721Z,0.40
2019-06-07T17:17:18.554Z,0.30
2019-06-07T17:20:06.931Z,0.80
2019-06-07T17:22:55.153Z,0.30
2019-06-07T17:25:43.530Z,0.30
2019-06-07T17:28:32.935Z,0.30
2019-06-07T17:31:20.911Z,0.40
2019-06-07T17:34:08.866Z,0.70
2019-06-07T17:36:56.899Z,0.33
2019-06-07T17:39:45.086Z,0.40
2019-06-07T17:42:34.787Z,0.47
2019-06-07T17:45:22.730Z,0.42
2019-06-07T17:48:02.069Z,0.40
2019-06-07T17:50:50.087Z,0.50
2019-06-07T17:53:38.346Z,0.50
2019-06-07T17:56:26.372Z,0.40
2019-06-07T17:59:14.343Z,0.45
2019-06-07T18:02:14.317Z,0.40
2019-06-07T18:04:51.691Z,0.40
2019-06-07T18:07:39.711Z,0.50
2019-06-07T18:14:10.308Z,0.45
2019-06-07T18:16:50.621Z,0.60
2019-06-07T18:19:38.186Z,0.50
2019-06-07T18:22:26.339Z,0.50
2019-06-07T18:25:14.705Z,0.50
2019-06-07T18:28:02.926Z,0.40
2019-06-07T18:30:51.006Z,0.53
2019-06-07T18:33:39.051Z,0.50
2019-06-07T18:36:27.028Z,0.68
2019-06-07T18:39:15.044Z,0.50
2019-06-07T18:42:03.002Z,0.60
2019-06-07T18:44:51.087Z,0.60
2019-06-07T18:47:39.047Z,0.50
2019-06-07T18:50:27.039Z,0.50
2019-06-07T18:53:15.052Z,0.60
2019-06-07T18:56:03.108Z,0.60
2019-06-07T18:58:51.123Z,0.60
2019-06-07T19:01:39.047Z,0.50
2019-06-07T19:04:07.791Z,0.40
2019-06-07T19:06:56.389Z,0.47
2019-06-07T19:09:45.694Z,0.60
2019-06-07T19:12:33.650Z,0.60
2019-06-07T19:15:22.150Z,0.50
2019-06-07T19:18:10.133Z,0.47
2019-06-07T19:20:58.566Z,0.33
2019-06-07T19:23:47.920Z,0.50
2019-06-07T19:26:35.879Z,0.40
2019-06-07T19:29:23.897Z,0.40
2019-06-07T19:32:11.946Z,0.53
2019-06-07T19:35:00.065Z,0.50
2019-06-07T19:37:48.119Z,0.60
2019-06-07T19:40:36.191Z,0.50
2019-06-07T19:43:24.446Z,0.30
2019-06-07T19:46:12.403Z,0.50
2019-06-07T19:48:53.016Z,0.55
2019-06-07T19:51:33.950Z,0.60
2019-06-07T19:54:14.991Z,0.50
2019-06-07T19:56:43.774Z,0.60
2019-06-07T19:59:12.618Z,0.50
2019-06-07T20:01:41.383Z,0.62
2019-06-07T20:04:10.175Z,0.57
2019-06-07T20:06:38.897Z,0.55
2019-06-07T20:09:08.054Z,0.53
2019-06-07T20:11:36.906Z,0.50
2019-06-07T20:14:24.651Z,0.50
2019-06-07T20:16:55.115Z,0.50
2019-06-07T20:19:43.270Z,0.60
2019-06-07T20:22:31.234Z,0.60
2019-06-07T20:25:19.341Z,0.50
2019-06-07T20:28:07.304Z,0.60
2019-06-07T20:30:55.281Z,0.50
2019-06-07T20:33:43.275Z,0.65
2019-06-07T20:36:31.244Z,0.53
2019-06-07T20:42:26.388Z,0.53
2019-06-07T20:45:14.676Z,0.62
2019-06-07T20:47:55.020Z,0.50
2019-06-07T20:50:35.836Z,0.50
2019-06-07T20:53:16.549Z,0.75
2019-06-07T20:55:58.488Z,0.60
2019-06-07T20:58:27.420Z,0.60
2019-06-07T21:01:15.483Z,0.60
2019-06-07T21:04:03.539Z,0.60
2019-06-07T21:06:51.507Z,0.50
2019-06-07T21:09:39.492Z,0.68
2019-06-07T21:12:27.525Z,0.60
2019-06-07T21:15:15.543Z,0.47
2019-06-07T21:18:08.712Z,0.53
2019-06-07T21:20:53.235Z,0.65
2019-06-07T21:23:41.200Z,0.60
2019-06-07T21:26:29.167Z,0.60
2019-06-07T21:29:17.153Z,0.60
2019-06-07T21:32:05.416Z,0.50
2019-06-07T21:34:54.827Z,0.60
2019-06-07T21:37:42.779Z,0.60
2019-06-07T21:40:30.827Z,0.50
2019-06-07T21:42:59.673Z,0.60
2019-06-07T21:45:47.683Z,0.70
2019-06-07T21:48:28.238Z,0.70
2019-06-07T21:51:09.007Z,0.70
2019-06-07T21:53:50.320Z,0.60
2019-06-07T21:56:31.215Z,0.50
2019-06-07T21:59:13.349Z,0.50
2019-06-07T22:01:54.270Z,1.07
2019-06-07T22:04:35.000Z,0.55
2019-06-07T22:07:15.969Z,0.68
2019-06-07T22:09:44.775Z,0.60
2019-06-07T22:12:32.799Z,0.70
2019-06-07T22:15:33.024Z,0.50
2019-06-07T22:18:10.919Z,0.50
2019-06-07T22:20:58.924Z,0.60
2019-06-07T22:23:46.895Z,0.60
2019-06-07T22:26:35.141Z,0.60
2019-06-07T22:29:23.135Z,0.53
2019-06-07T22:32:11.115Z,0.50
2019-06-07T22:34:39.844Z,0.55
2019-06-07T22:37:27.879Z,0.55
2019-06-07T22:40:16.024Z,0.60
2019-06-07T22:43:04.119Z,0.60
2019-06-07T22:45:33.160Z,0.42
2019-06-07T22:48:15.439Z,0.50
2019-06-07T22:50:57.735Z,0.62
2019-06-07T22:53:43.942Z,0.63
2019-06-07T22:59:48.591Z,0.60
2019-06-07T23:02:29.331Z,0.85
2019-06-07T23:05:10.680Z,0.70
2019-06-07T23:07:51.158Z,0.70
2019-06-07T23:10:31.743Z,0.78
2019-06-07T23:13:13.585Z,0.90
2019-06-07T23:15:42.526Z,0.50
2019-06-07T23:18:30.483Z,0.80
2019-06-07T23:21:18.515Z,0.70
2019-06-07T23:23:47.366Z,0.50
2019-06-07T23:26:35.314Z,0.60
2019-06-07T23:29:23.350Z,0.60
2019-06-07T23:32:12.504Z,0.63
2019-06-07T23:35:00.974Z,0.53
2019-06-07T23:37:48.950Z,0.60
2019-06-07T23:40:36.919Z,0.60
2019-06-07T23:43:24.882Z,0.60
2019-06-07T23:46:13.446Z,0.60
2019-06-07T23:48:55.407Z,0.60
2019-06-07T23:51:36.296Z,0.60
2019-06-07T23:54:17.833Z,0.53
2019-06-07T23:56:59.007Z,0.50
2019-06-07T23:59:39.639Z,0.40
